sensor_id;sensor_type;location;lat;lon;timestamp;temperature;humidity
14057;DHT22;7103;54.300;10.180;2023-08-30T00:01:16;13.30;1.00
14057;DHT22;7103;54.300;10.180;2023-08-30T00:03:43;13.30;1.00
14057;DHT22;7103;54.300;10.180;2023-08-30T00:06:10;13.30;1.00
14057;DHT22;7103;54.300;10.180;2023-08-30T00:08:37;13.30;1.00
14057;DHT22;7103;54.300;10.180;2023-08-30T00:11:04;13.30;1.00
14057;DHT22;7103;54.300;10.180;2023-08-30T00:13:32;13.30;1.00
14057;DHT22;7103;54.300;10.180;2023-08-30T00:16:00;13.20;1.00
14057;DHT22;7103;54.300;10.180;2023-08-30T00:18:29;13.20;1.00
14057;DHT22;7103;54.300;10.180;2023-08-30T00:20:57;13.20;1.00
14057;DHT22;7103;54.300;10.180;2023-08-30T00:23:24;13.20;1.00
14057;DHT22;7103;54.300;10.180;2023-08-30T00:25:51;13.20;1.00
14057;DHT22;7103;54.300;10.180;2023-08-30T00:28:19;13.20;1.00
14057;DHT22;7103;54.300;10.180;2023-08-30T00:30:45;13.30;1.00
14057;DHT22;7103;54.300;10.180;2023-08-30T00:33:12;13.30;1.00
14057;DHT22;7103;54.300;10.180;2023-08-30T00:35:39;13.30;1.00
14057;DHT22;7103;54.300;10.180;2023-08-30T00:38:06;13.30;1.00
14057;DHT22;7103;54.300;10.180;2023-08-30T00:40:40;13.30;1.00
14057;DHT22;7103;54.300;10.180;2023-08-30T00:43:08;13.30;1.00
14057;DHT22;7103;54.300;10.180;2023-08-30T00:45:37;13.30;1.00
14057;DHT22;7103;54.300;10.180;2023-08-30T00:48:06;13.40;1.00
14057;DHT22;7103;54.300;10.180;2023-08-30T00:50:34;13.40;1.00
14057;DHT22;7103;54.300;10.180;2023-08-30T00:53:03;13.30;1.00
14057;DHT22;7103;54.300;10.180;2023-08-30T00:55:35;13.30;1.00
14057;DHT22;7103;54.300;10.180;2023-08-30T00:58:02;13.30;1.00
14057;DHT22;7103;54.300;10.180;2023-08-30T01:00:30;13.30;1.00
14057;DHT22;7103;54.300;10.180;2023-08-30T01:02:58;13.30;1.00
14057;DHT22;7103;54.300;10.180;2023-08-30T01:05:25;13.20;1.00
14057;DHT22;7103;54.300;10.180;2023-08-30T01:07:52;13.20;1.00
14057;DHT22;7103;54.300;10.180;2023-08-30T01:10:27;13.10;1.00
14057;DHT22;7103;54.300;10.180;2023-08-30T01:13:04;13.10;1.00
14057;DHT22;7103;54.300;10.180;2023-08-30T01:15:33;13.10;1.00
14057;DHT22;7103;54.300;10.180;2023-08-30T01:18:02;13.00;1.00
14057;DHT22;7103;54.300;10.180;2023-08-30T01:20:35;12.90;12.60
14057;DHT22;7103;54.300;10.180;2023-08-30T01:26:12;12.80;23.20
14057;DHT22;7103;54.300;10.180;2023-08-30T01:28:40;12.70;23.20
14057;DHT22;7103;54.300;10.180;2023-08-30T01:31:11;12.60;23.10
14057;DHT22;7103;54.300;10.180;2023-08-30T01:33:40;12.70;23.80
14057;DHT22;7103;54.300;10.180;2023-08-30T01:36:08;12.70;51.80
14057;DHT22;7103;54.300;10.180;2023-08-30T01:38:36;12.70;80.90
14057;DHT22;7103;54.300;10.180;2023-08-30T01:41:04;12.60;92.30
14057;DHT22;7103;54.300;10.180;2023-08-30T01:43:31;12.50;98.80
14057;DHT22;7103;54.300;10.180;2023-08-30T01:46:00;12.50;96.10
14057;DHT22;7103;54.300;10.180;2023-08-30T01:48:29;12.40;95.40
14057;DHT22;7103;54.300;10.180;2023-08-30T01:50:57;12.30;94.10
14057;DHT22;7103;54.300;10.180;2023-08-30T01:53:28;12.30;93.20
14057;DHT22;7103;54.300;10.180;2023-08-30T01:55:55;12.30;86.00
14057;DHT22;7103;54.300;10.180;2023-08-30T01:58:22;12.30;80.30
14057;DHT22;7103;54.300;10.180;2023-08-30T02:00:49;12.30;78.10
14057;DHT22;7103;54.300;10.180;2023-08-30T02:03:16;12.30;80.40
14057;DHT22;7103;54.300;10.180;2023-08-30T02:08:22;12.50;99.90
14057;DHT22;7103;54.300;10.180;2023-08-30T02:11:01;12.60;99.40
14057;DHT22;7103;54.300;10.180;2023-08-30T02:13:30;12.60;98.60
14057;DHT22;7103;54.300;10.180;2023-08-30T02:16:00;12.50;98.30
14057;DHT22;7103;54.300;10.180;2023-08-30T02:18:28;12.40;98.20
14057;DHT22;7103;54.300;10.180;2023-08-30T02:21:00;12.40;98.60
14057;DHT22;7103;54.300;10.180;2023-08-30T02:23:27;12.30;96.90
14057;DHT22;7103;54.300;10.180;2023-08-30T02:25:54;12.30;95.50
14057;DHT22;7103;54.300;10.180;2023-08-30T02:28:22;12.30;96.60
14057;DHT22;7103;54.300;10.180;2023-08-30T02:30:52;12.30;99.90
14057;DHT22;7103;54.300;10.180;2023-08-30T02:33:19;12.30;99.90
14057;DHT22;7103;54.300;10.180;2023-08-30T02:35:46;12.20;99.90
14057;DHT22;7103;54.300;10.180;2023-08-30T02:38:13;12.20;99.90
14057;DHT22;7103;54.300;10.180;2023-08-30T02:40:40;12.20;99.90
14057;DHT22;7103;54.300;10.180;2023-08-30T02:43:07;12.20;99.90
14057;DHT22;7103;54.300;10.180;2023-08-30T02:45:34;12.40;99.90
14057;DHT22;7103;54.300;10.180;2023-08-30T02:48:01;12.50;99.90
14057;DHT22;7103;54.300;10.180;2023-08-30T02:50:28;12.70;99.90
14057;DHT22;7103;54.300;10.180;2023-08-30T02:52:55;12.70;99.90
14057;DHT22;7103;54.300;10.180;2023-08-30T02:55:22;12.60;99.90
14057;DHT22;7103;54.300;10.180;2023-08-30T02:57:49;12.60;99.90
14057;DHT22;7103;54.300;10.180;2023-08-30T03:00:16;12.70;99.90
14057;DHT22;7103;54.300;10.180;2023-08-30T03:02:43;13.00;99.90
14057;DHT22;7103;54.300;10.180;2023-08-30T03:05:10;12.80;99.90
14057;DHT22;7103;54.300;10.180;2023-08-30T03:07:38;12.80;99.90
14057;DHT22;7103;54.300;10.180;2023-08-30T03:10:06;12.80;99.90
14057;DHT22;7103;54.300;10.180;2023-08-30T03:12:33;12.80;99.90
14057;DHT22;7103;54.300;10.180;2023-08-30T03:15:00;12.80;99.90
14057;DHT22;7103;54.300;10.180;2023-08-30T03:17:27;12.80;99.90
14057;DHT22;7103;54.300;10.180;2023-08-30T03:19:56;12.90;99.90
14057;DHT22;7103;54.300;10.180;2023-08-30T03:22:23;13.00;99.90
14057;DHT22;7103;54.300;10.180;2023-08-30T03:24:51;13.00;99.90
14057;DHT22;7103;54.300;10.180;2023-08-30T03:27:17;13.20;99.90
14057;DHT22;7103;54.300;10.180;2023-08-30T03:29:46;13.20;99.90
14057;DHT22;7103;54.300;10.180;2023-08-30T03:32:17;13.20;99.90
14057;DHT22;7103;54.300;10.180;2023-08-30T03:34:45;13.10;99.90
14057;DHT22;7103;54.300;10.180;2023-08-30T03:37:15;13.20;99.90
14057;DHT22;7103;54.300;10.180;2023-08-30T03:39:42;13.20;99.90
14057;DHT22;7103;54.300;10.180;2023-08-30T03:42:09;13.20;99.90
14057;DHT22;7103;54.300;10.180;2023-08-30T03:44:37;13.20;99.90
14057;DHT22;7103;54.300;10.180;2023-08-30T03:47:05;13.20;99.90
14057;DHT22;7103;54.300;10.180;2023-08-30T03:49:32;13.20;99.90
14057;DHT22;7103;54.300;10.180;2023-08-30T03:51:59;13.20;99.90
14057;DHT22;7103;54.300;10.180;2023-08-30T03:54:26;13.10;99.90
14057;DHT22;7103;54.300;10.180;2023-08-30T03:56:53;13.10;99.90
14057;DHT22;7103;54.300;10.180;2023-08-30T03:59:22;13.10;99.90
14057;DHT22;7103;54.300;10.180;2023-08-30T04:01:53;13.20;99.90
14057;DHT22;7103;54.300;10.180;2023-08-30T04:04:20;13.30;99.90
14057;DHT22;7103;54.300;10.180;2023-08-30T04:06:47;13.40;99.90
14057;DHT22;7103;54.300;10.180;2023-08-30T04:09:14;13.30;99.90
14057;DHT22;7103;54.300;10.180;2023-08-30T04:11:41;13.30;99.90
14057;DHT22;7103;54.300;10.180;2023-08-30T04:14:09;13.40;99.90
14057;DHT22;7103;54.300;10.180;2023-08-30T04:16:36;13.40;99.90
14057;DHT22;7103;54.300;10.180;2023-08-30T04:19:02;13.40;99.90
14057;DHT22;7103;54.300;10.180;2023-08-30T04:21:29;13.30;99.90
14057;DHT22;7103;54.300;10.180;2023-08-30T04:23:56;13.40;99.90
14057;DHT22;7103;54.300;10.180;2023-08-30T04:26:23;13.40;99.90
14057;DHT22;7103;54.300;10.180;2023-08-30T04:28:50;13.40;99.90
14057;DHT22;7103;54.300;10.180;2023-08-30T04:31:17;13.40;99.90
14057;DHT22;7103;54.300;10.180;2023-08-30T04:33:44;13.40;99.90
14057;DHT22;7103;54.300;10.180;2023-08-30T04:36:11;13.50;99.90
14057;DHT22;7103;54.300;10.180;2023-08-30T04:38:38;13.40;99.90
14057;DHT22;7103;54.300;10.180;2023-08-30T04:41:14;13.50;99.90
14057;DHT22;7103;54.300;10.180;2023-08-30T04:43:41;13.50;99.90
14057;DHT22;7103;54.300;10.180;2023-08-30T04:46:08;13.50;99.90
14057;DHT22;7103;54.300;10.180;2023-08-30T04:48:37;13.60;99.90
14057;DHT22;7103;54.300;10.180;2023-08-30T04:51:04;13.60;99.90
14057;DHT22;7103;54.300;10.180;2023-08-30T04:53:31;13.60;99.90
14057;DHT22;7103;54.300;10.180;2023-08-30T04:55:59;13.80;99.90
14057;DHT22;7103;54.300;10.180;2023-08-30T04:58:26;13.90;99.90
14057;DHT22;7103;54.300;10.180;2023-08-30T05:00:56;13.90;99.90
14057;DHT22;7103;54.300;10.180;2023-08-30T05:03:23;13.90;99.90
14057;DHT22;7103;54.300;10.180;2023-08-30T05:05:50;14.00;99.90
14057;DHT22;7103;54.300;10.180;2023-08-30T05:08:17;14.00;99.90
14057;DHT22;7103;54.300;10.180;2023-08-30T05:10:44;14.00;99.90
14057;DHT22;7103;54.300;10.180;2023-08-30T05:13:16;14.00;99.90
14057;DHT22;7103;54.300;10.180;2023-08-30T05:15:43;14.00;99.90
14057;DHT22;7103;54.300;10.180;2023-08-30T05:18:10;14.10;99.90
14057;DHT22;7103;54.300;10.180;2023-08-30T05:20:37;14.10;99.90
14057;DHT22;7103;54.300;10.180;2023-08-30T05:23:04;14.10;99.90
14057;DHT22;7103;54.300;10.180;2023-08-30T05:25:31;14.10;99.90
14057;DHT22;7103;54.300;10.180;2023-08-30T05:27:58;14.10;99.90
14057;DHT22;7103;54.300;10.180;2023-08-30T05:30:25;14.20;99.90
14057;DHT22;7103;54.300;10.180;2023-08-30T05:32:52;14.10;99.90
14057;DHT22;7103;54.300;10.180;2023-08-30T05:35:20;14.20;99.90
14057;DHT22;7103;54.300;10.180;2023-08-30T05:37:47;14.20;99.90
14057;DHT22;7103;54.300;10.180;2023-08-30T05:40:14;14.30;99.90
14057;DHT22;7103;54.300;10.180;2023-08-30T05:42:43;14.30;99.90
14057;DHT22;7103;54.300;10.180;2023-08-30T05:45:12;14.30;99.90
14057;DHT22;7103;54.300;10.180;2023-08-30T05:47:39;14.30;99.90
14057;DHT22;7103;54.300;10.180;2023-08-30T05:50:06;14.40;99.90
14057;DHT22;7103;54.300;10.180;2023-08-30T05:52:33;14.40;99.90
14057;DHT22;7103;54.300;10.180;2023-08-30T05:55:00;14.50;99.90
14057;DHT22;7103;54.300;10.180;2023-08-30T05:57:27;14.50;99.90
14057;DHT22;7103;54.300;10.180;2023-08-30T06:00:00;14.60;99.90
14057;DHT22;7103;54.300;10.180;2023-08-30T06:02:27;14.70;99.90
14057;DHT22;7103;54.300;10.180;2023-08-30T06:04:54;14.70;99.90
14057;DHT22;7103;54.300;10.180;2023-08-30T06:07:22;14.80;99.90
14057;DHT22;7103;54.300;10.180;2023-08-30T06:09:49;14.80;99.90
14057;DHT22;7103;54.300;10.180;2023-08-30T06:12:16;14.90;99.30
14057;DHT22;7103;54.300;10.180;2023-08-30T06:14:43;14.90;71.30
14057;DHT22;7103;54.300;10.180;2023-08-30T06:17:16;15.00;65.10
14057;DHT22;7103;54.300;10.180;2023-08-30T06:19:44;15.00;65.70
14057;DHT22;7103;54.300;10.180;2023-08-30T06:22:11;15.10;72.70
14057;DHT22;7103;54.300;10.180;2023-08-30T06:24:39;15.20;58.30
14057;DHT22;7103;54.300;10.180;2023-08-30T06:27:06;15.30;35.90
14057;DHT22;7103;54.300;10.180;2023-08-30T06:29:33;15.30;25.00
14057;DHT22;7103;54.300;10.180;2023-08-30T06:31:59;15.40;11.50
14057;DHT22;7103;54.300;10.180;2023-08-30T06:34:26;15.40;1.00
14057;DHT22;7103;54.300;10.180;2023-08-30T06:36:53;15.40;1.00
14057;DHT22;7103;54.300;10.180;2023-08-30T06:39:20;15.50;1.00
14057;DHT22;7103;54.300;10.180;2023-08-30T06:41:47;15.50;1.00
14057;DHT22;7103;54.300;10.180;2023-08-30T06:44:14;15.60;1.00
14057;DHT22;7103;54.300;10.180;2023-08-30T06:46:42;15.70;1.00
14057;DHT22;7103;54.300;10.180;2023-08-30T06:49:09;15.70;1.00
14057;DHT22;7103;54.300;10.180;2023-08-30T06:51:36;15.70;1.00
14057;DHT22;7103;54.300;10.180;2023-08-30T06:54:03;15.90;1.00
14057;DHT22;7103;54.300;10.180;2023-08-30T06:56:30;16.00;1.00
14057;DHT22;7103;54.300;10.180;2023-08-30T06:58:57;16.50;1.00
14057;DHT22;7103;54.300;10.180;2023-08-30T07:01:24;17.10;1.00
14057;DHT22;7103;54.300;10.180;2023-08-30T07:03:51;17.80;1.00
14057;DHT22;7103;54.300;10.180;2023-08-30T07:06:18;18.30;1.00
14057;DHT22;7103;54.300;10.180;2023-08-30T07:08:45;18.80;1.00
14057;DHT22;7103;54.300;10.180;2023-08-30T07:11:12;19.30;1.00
14057;DHT22;7103;54.300;10.180;2023-08-30T07:13:58;19.80;1.00
14057;DHT22;7103;54.300;10.180;2023-08-30T07:16:25;20.20;1.00
14057;DHT22;7103;54.300;10.180;2023-08-30T07:18:52;20.60;1.00
14057;DHT22;7103;54.300;10.180;2023-08-30T07:21:19;20.90;1.00
14057;DHT22;7103;54.300;10.180;2023-08-30T07:23:46;21.00;1.00
14057;DHT22;7103;54.300;10.180;2023-08-30T07:26:13;21.20;1.00
14057;DHT22;7103;54.300;10.180;2023-08-30T07:28:40;21.40;1.00
14057;DHT22;7103;54.300;10.180;2023-08-30T07:31:07;21.60;1.00
14057;DHT22;7103;54.300;10.180;2023-08-30T07:33:35;21.50;1.00
14057;DHT22;7103;54.300;10.180;2023-08-30T07:36:02;21.60;1.00
14057;DHT22;7103;54.300;10.180;2023-08-30T07:38:29;21.80;1.00
14057;DHT22;7103;54.300;10.180;2023-08-30T07:40:56;21.60;1.00
14057;DHT22;7103;54.300;10.180;2023-08-30T07:43:23;21.70;1.00
14057;DHT22;7103;54.300;10.180;2023-08-30T07:45:50;21.90;1.00
14057;DHT22;7103;54.300;10.180;2023-08-30T07:48:17;22.00;1.00
14057;DHT22;7103;54.300;10.180;2023-08-30T07:50:44;22.10;1.00
14057;DHT22;7103;54.300;10.180;2023-08-30T07:53:11;22.50;1.00
14057;DHT22;7103;54.300;10.180;2023-08-30T07:55:39;22.70;1.00
14057;DHT22;7103;54.300;10.180;2023-08-30T07:58:06;22.90;99.90
14057;DHT22;7103;54.300;10.180;2023-08-30T08:00:36;23.00;99.90
14057;DHT22;7103;54.300;10.180;2023-08-30T08:03:03;23.00;99.90
14057;DHT22;7103;54.300;10.180;2023-08-30T08:05:30;23.10;99.90
14057;DHT22;7103;54.300;10.180;2023-08-30T08:08:00;23.00;99.90
14057;DHT22;7103;54.300;10.180;2023-08-30T08:10:28;22.80;99.90
14057;DHT22;7103;54.300;10.180;2023-08-30T08:12:55;23.10;99.90
14057;DHT22;7103;54.300;10.180;2023-08-30T08:15:24;23.00;99.90
14057;DHT22;7103;54.300;10.180;2023-08-30T08:17:52;23.10;99.90
14057;DHT22;7103;54.300;10.180;2023-08-30T08:20:19;23.10;99.90
14057;DHT22;7103;54.300;10.180;2023-08-30T08:22:46;23.30;99.90
14057;DHT22;7103;54.300;10.180;2023-08-30T08:25:13;23.30;99.90
14057;DHT22;7103;54.300;10.180;2023-08-30T08:27:40;23.40;99.90
14057;DHT22;7103;54.300;10.180;2023-08-30T08:30:07;23.40;99.90
14057;DHT22;7103;54.300;10.180;2023-08-30T08:32:35;23.30;99.90
14057;DHT22;7103;54.300;10.180;2023-08-30T08:35:02;23.40;99.90
14057;DHT22;7103;54.300;10.180;2023-08-30T08:37:29;23.00;99.90
14057;DHT22;7103;54.300;10.180;2023-08-30T08:39:56;22.90;99.90
14057;DHT22;7103;54.300;10.180;2023-08-30T08:42:23;23.00;99.90
14057;DHT22;7103;54.300;10.180;2023-08-30T08:44:51;23.30;99.90
14057;DHT22;7103;54.300;10.180;2023-08-30T08:47:20;23.30;99.90
14057;DHT22;7103;54.300;10.180;2023-08-30T08:49:47;23.20;99.90
14057;DHT22;7103;54.300;10.180;2023-08-30T08:52:15;22.80;99.90
14057;DHT22;7103;54.300;10.180;2023-08-30T08:54:57;22.60;99.90
14057;DHT22;7103;54.300;10.180;2023-08-30T08:57:28;22.20;99.90
14057;DHT22;7103;54.300;10.180;2023-08-30T08:59:56;21.90;99.90
14057;DHT22;7103;54.300;10.180;2023-08-30T09:02:23;21.60;99.90
14057;DHT22;7103;54.300;10.180;2023-08-30T09:04:52;21.30;99.90
14057;DHT22;7103;54.300;10.180;2023-08-30T09:07:19;21.40;99.90
14057;DHT22;7103;54.300;10.180;2023-08-30T09:09:47;21.40;99.90
14057;DHT22;7103;54.300;10.180;2023-08-30T09:12:14;21.30;99.90
14057;DHT22;7103;54.300;10.180;2023-08-30T09:14:41;21.30;99.90
14057;DHT22;7103;54.300;10.180;2023-08-30T09:17:08;21.10;99.90
14057;DHT22;7103;54.300;10.180;2023-08-30T09:19:35;20.90;99.90
14057;DHT22;7103;54.300;10.180;2023-08-30T09:22:02;20.90;99.90
14057;DHT22;7103;54.300;10.180;2023-08-30T09:24:39;21.10;99.90
14057;DHT22;7103;54.300;10.180;2023-08-30T09:27:06;21.30;99.90
14057;DHT22;7103;54.300;10.180;2023-08-30T09:29:33;21.30;99.90
14057;DHT22;7103;54.300;10.180;2023-08-30T09:32:01;21.30;99.90
14057;DHT22;7103;54.300;10.180;2023-08-30T09:34:28;21.30;99.90
14057;DHT22;7103;54.300;10.180;2023-08-30T09:36:55;21.40;99.90
14057;DHT22;7103;54.300;10.180;2023-08-30T09:39:22;21.80;99.90
14057;DHT22;7103;54.300;10.180;2023-08-30T09:41:50;22.10;99.90
14057;DHT22;7103;54.300;10.180;2023-08-30T09:44:21;22.30;99.90
14057;DHT22;7103;54.300;10.180;2023-08-30T09:46:53;22.40;99.90
14057;DHT22;7103;54.300;10.180;2023-08-30T09:49:22;22.30;99.90
14057;DHT22;7103;54.300;10.180;2023-08-30T09:51:51;22.40;99.90
14057;DHT22;7103;54.300;10.180;2023-08-30T09:54:24;22.30;99.90
14057;DHT22;7103;54.300;10.180;2023-08-30T09:56:54;22.20;99.90
14057;DHT22;7103;54.300;10.180;2023-08-30T09:59:23;21.80;99.90
14057;DHT22;7103;54.300;10.180;2023-08-30T10:01:51;21.70;99.90
14057;DHT22;7103;54.300;10.180;2023-08-30T10:04:20;21.90;99.90
14057;DHT22;7103;54.300;10.180;2023-08-30T10:06:47;21.90;99.90
14057;DHT22;7103;54.300;10.180;2023-08-30T10:09:16;22.10;99.90
14057;DHT22;7103;54.300;10.180;2023-08-30T10:11:46;22.30;99.90
14057;DHT22;7103;54.300;10.180;2023-08-30T10:14:17;22.20;99.90
14057;DHT22;7103;54.300;10.180;2023-08-30T10:16:48;22.10;99.90
14057;DHT22;7103;54.300;10.180;2023-08-30T10:19:25;21.80;99.90
14057;DHT22;7103;54.300;10.180;2023-08-30T10:22:03;21.70;99.90
14057;DHT22;7103;54.300;10.180;2023-08-30T10:24:37;21.50;99.90
14057;DHT22;7103;54.300;10.180;2023-08-30T10:27:24;21.30;99.90
14057;DHT22;7103;54.300;10.180;2023-08-30T10:29:51;21.10;99.90
14057;DHT22;7103;54.300;10.180;2023-08-30T10:32:22;21.10;99.90
14057;DHT22;7103;54.300;10.180;2023-08-30T10:34:50;21.00;99.90
14057;DHT22;7103;54.300;10.180;2023-08-30T10:37:23;21.00;99.90
14057;DHT22;7103;54.300;10.180;2023-08-30T10:39:51;21.10;99.90
14057;DHT22;7103;54.300;10.180;2023-08-30T10:42:22;21.10;99.90
14057;DHT22;7103;54.300;10.180;2023-08-30T10:44:56;21.10;99.90
14057;DHT22;7103;54.300;10.180;2023-08-30T10:47:40;20.90;99.90
14057;DHT22;7103;54.300;10.180;2023-08-30T10:50:11;20.70;99.90
14057;DHT22;7103;54.300;10.180;2023-08-30T10:52:39;20.40;99.90
14057;DHT22;7103;54.300;10.180;2023-08-30T10:55:06;20.40;99.90
14057;DHT22;7103;54.300;10.180;2023-08-30T10:57:38;20.50;99.90
14057;DHT22;7103;54.300;10.180;2023-08-30T11:00:12;20.40;99.90
14057;DHT22;7103;54.300;10.180;2023-08-30T11:02:46;20.40;99.90
14057;DHT22;7103;54.300;10.180;2023-08-30T11:05:18;20.50;99.90
14057;DHT22;7103;54.300;10.180;2023-08-30T11:07:46;20.60;99.90
14057;DHT22;7103;54.300;10.180;2023-08-30T11:10:16;20.50;99.90
14057;DHT22;7103;54.300;10.180;2023-08-30T11:12:44;20.70;99.90
14057;DHT22;7103;54.300;10.180;2023-08-30T11:15:14;20.70;99.90
14057;DHT22;7103;54.300;10.180;2023-08-30T11:17:42;20.80;99.90
14057;DHT22;7103;54.300;10.180;2023-08-30T11:20:14;21.00;99.90
14057;DHT22;7103;54.300;10.180;2023-08-30T11:22:45;21.10;99.90
14057;DHT22;7103;54.300;10.180;2023-08-30T11:25:14;21.40;99.90
14057;DHT22;7103;54.300;10.180;2023-08-30T11:27:42;21.60;99.90
14057;DHT22;7103;54.300;10.180;2023-08-30T11:30:10;21.60;99.90
14057;DHT22;7103;54.300;10.180;2023-08-30T11:32:39;21.80;99.90
14057;DHT22;7103;54.300;10.180;2023-08-30T11:35:07;21.70;99.90
14057;DHT22;7103;54.300;10.180;2023-08-30T11:37:34;21.70;99.90
14057;DHT22;7103;54.300;10.180;2023-08-30T11:40:02;21.90;99.90
14057;DHT22;7103;54.300;10.180;2023-08-30T11:42:31;22.20;99.90
14057;DHT22;7103;54.300;10.180;2023-08-30T11:44:59;22.10;99.90
14057;DHT22;7103;54.300;10.180;2023-08-30T11:47:27;22.20;99.90
14057;DHT22;7103;54.300;10.180;2023-08-30T11:49:55;22.40;99.90
14057;DHT22;7103;54.300;10.180;2023-08-30T11:52:23;22.40;99.90
14057;DHT22;7103;54.300;10.180;2023-08-30T11:54:51;22.40;99.90
14057;DHT22;7103;54.300;10.180;2023-08-30T11:57:19;22.60;99.90
14057;DHT22;7103;54.300;10.180;2023-08-30T11:59:46;22.80;99.90
14057;DHT22;7103;54.300;10.180;2023-08-30T12:02:17;23.10;99.90
14057;DHT22;7103;54.300;10.180;2023-08-30T12:04:46;23.40;99.90
14057;DHT22;7103;54.300;10.180;2023-08-30T12:07:25;23.50;99.90
14057;DHT22;7103;54.300;10.180;2023-08-30T12:10:06;23.30;99.90
14057;DHT22;7103;54.300;10.180;2023-08-30T12:12:34;23.00;99.90
14057;DHT22;7103;54.300;10.180;2023-08-30T12:15:10;23.00;99.90
14057;DHT22;7103;54.300;10.180;2023-08-30T12:17:38;22.90;99.90
14057;DHT22;7103;54.300;10.180;2023-08-30T12:20:05;22.60;99.90
14057;DHT22;7103;54.300;10.180;2023-08-30T12:22:39;22.30;99.90
14057;DHT22;7103;54.300;10.180;2023-08-30T12:25:20;21.90;99.90
14057;DHT22;7103;54.300;10.180;2023-08-30T12:27:47;22.00;99.90
14057;DHT22;7103;54.300;10.180;2023-08-30T12:30:15;22.50;99.90
14057;DHT22;7103;54.300;10.180;2023-08-30T12:32:44;22.90;99.90
14057;DHT22;7103;54.300;10.180;2023-08-30T12:35:12;22.80;99.90
14057;DHT22;7103;54.300;10.180;2023-08-30T12:37:40;22.60;99.90
14057;DHT22;7103;54.300;10.180;2023-08-30T12:40:07;22.50;99.90
14057;DHT22;7103;54.300;10.180;2023-08-30T12:42:35;22.60;99.90
14057;DHT22;7103;54.300;10.180;2023-08-30T12:45:02;22.60;99.90
14057;DHT22;7103;54.300;10.180;2023-08-30T12:47:30;22.40;99.90
14057;DHT22;7103;54.300;10.180;2023-08-30T12:49:57;22.40;99.90
14057;DHT22;7103;54.300;10.180;2023-08-30T12:52:24;22.70;99.90
14057;DHT22;7103;54.300;10.180;2023-08-30T12:54:51;22.90;99.90
14057;DHT22;7103;54.300;10.180;2023-08-30T12:57:19;23.10;99.90
14057;DHT22;7103;54.300;10.180;2023-08-30T12:59:46;23.20;99.90
14057;DHT22;7103;54.300;10.180;2023-08-30T13:02:13;23.10;99.90
14057;DHT22;7103;54.300;10.180;2023-08-30T13:04:40;23.20;99.90
14057;DHT22;7103;54.300;10.180;2023-08-30T13:07:07;23.30;99.90
14057;DHT22;7103;54.300;10.180;2023-08-30T13:09:34;23.20;99.90
14057;DHT22;7103;54.300;10.180;2023-08-30T13:12:01;23.20;99.90
14057;DHT22;7103;54.300;10.180;2023-08-30T13:14:29;23.40;99.90
14057;DHT22;7103;54.300;10.180;2023-08-30T13:16:56;23.30;99.90
14057;DHT22;7103;54.300;10.180;2023-08-30T13:19:23;22.80;99.90
14057;DHT22;7103;54.300;10.180;2023-08-30T13:21:50;22.90;99.90
14057;DHT22;7103;54.300;10.180;2023-08-30T13:24:17;22.80;99.90
14057;DHT22;7103;54.300;10.180;2023-08-30T13:26:44;22.80;99.90
14057;DHT22;7103;54.300;10.180;2023-08-30T13:29:11;22.90;99.90
14057;DHT22;7103;54.300;10.180;2023-08-30T13:31:38;23.00;99.90
14057;DHT22;7103;54.300;10.180;2023-08-30T13:34:05;23.10;99.90
14057;DHT22;7103;54.300;10.180;2023-08-30T13:36:32;23.40;99.90
14057;DHT22;7103;54.300;10.180;2023-08-30T13:38:59;23.40;99.90
14057;DHT22;7103;54.300;10.180;2023-08-30T13:41:26;23.20;99.90
14057;DHT22;7103;54.300;10.180;2023-08-30T13:43:53;23.00;99.90
14057;DHT22;7103;54.300;10.180;2023-08-30T13:46:24;23.00;99.90
14057;DHT22;7103;54.300;10.180;2023-08-30T13:48:51;23.00;99.90
14057;DHT22;7103;54.300;10.180;2023-08-30T13:51:22;23.10;99.90
14057;DHT22;7103;54.300;10.180;2023-08-30T13:53:53;23.20;99.90
14057;DHT22;7103;54.300;10.180;2023-08-30T13:56:20;23.10;99.90
14057;DHT22;7103;54.300;10.180;2023-08-30T13:58:47;22.90;99.90
14057;DHT22;7103;54.300;10.180;2023-08-30T14:01:14;22.80;99.90
14057;DHT22;7103;54.300;10.180;2023-08-30T14:03:41;22.80;99.90
14057;DHT22;7103;54.300;10.180;2023-08-30T14:06:08;22.80;99.90
14057;DHT22;7103;54.300;10.180;2023-08-30T14:08:36;22.80;99.90
14057;DHT22;7103;54.300;10.180;2023-08-30T14:11:03;22.70;99.90
14057;DHT22;7103;54.300;10.180;2023-08-30T14:13:30;22.70;99.90
14057;DHT22;7103;54.300;10.180;2023-08-30T14:16:01;22.50;99.90
14057;DHT22;7103;54.300;10.180;2023-08-30T14:18:30;22.50;99.90
14057;DHT22;7103;54.300;10.180;2023-08-30T14:20:58;22.50;99.90
14057;DHT22;7103;54.300;10.180;2023-08-30T14:23:26;22.50;99.90
14057;DHT22;7103;54.300;10.180;2023-08-30T14:26:03;22.40;99.90
14057;DHT22;7103;54.300;10.180;2023-08-30T14:28:36;22.30;99.90
14057;DHT22;7103;54.300;10.180;2023-08-30T14:31:06;22.30;99.90
14057;DHT22;7103;54.300;10.180;2023-08-30T14:33:34;22.40;99.90
14057;DHT22;7103;54.300;10.180;2023-08-30T14:36:02;22.60;99.90
14057;DHT22;7103;54.300;10.180;2023-08-30T14:38:29;22.80;99.90
14057;DHT22;7103;54.300;10.180;2023-08-30T14:40:57;22.90;99.90
14057;DHT22;7103;54.300;10.180;2023-08-30T14:43:24;23.00;99.90
14057;DHT22;7103;54.300;10.180;2023-08-30T14:45:59;23.10;99.90
14057;DHT22;7103;54.300;10.180;2023-08-30T14:48:35;22.90;99.90
14057;DHT22;7103;54.300;10.180;2023-08-30T14:51:05;22.60;99.90
14057;DHT22;7103;54.300;10.180;2023-08-30T14:53:32;22.40;99.90
14057;DHT22;7103;54.300;10.180;2023-08-30T14:55:59;22.20;99.90
14057;DHT22;7103;54.300;10.180;2023-08-30T14:58:26;22.00;99.90
14057;DHT22;7103;54.300;10.180;2023-08-30T15:00:53;21.90;99.90
14057;DHT22;7103;54.300;10.180;2023-08-30T15:03:20;21.90;99.90
14057;DHT22;7103;54.300;10.180;2023-08-30T15:05:54;21.90;99.90
14057;DHT22;7103;54.300;10.180;2023-08-30T15:08:22;21.90;99.90
14057;DHT22;7103;54.300;10.180;2023-08-30T15:10:50;21.90;99.90
14057;DHT22;7103;54.300;10.180;2023-08-30T15:13:19;21.70;99.90
14057;DHT22;7103;54.300;10.180;2023-08-30T15:15:46;21.80;99.90
14057;DHT22;7103;54.300;10.180;2023-08-30T15:18:13;21.60;99.90
14057;DHT22;7103;54.300;10.180;2023-08-30T15:20:40;21.60;99.90
14057;DHT22;7103;54.300;10.180;2023-08-30T15:23:11;21.50;99.90
14057;DHT22;7103;54.300;10.180;2023-08-30T15:25:44;21.50;99.90
14057;DHT22;7103;54.300;10.180;2023-08-30T15:28:12;21.50;99.90
14057;DHT22;7103;54.300;10.180;2023-08-30T15:30:46;21.40;99.90
14057;DHT22;7103;54.300;10.180;2023-08-30T15:33:13;21.40;99.90
14057;DHT22;7103;54.300;10.180;2023-08-30T15:36:01;21.30;99.90
14057;DHT22;7103;54.300;10.180;2023-08-30T15:38:28;21.20;99.90
14057;DHT22;7103;54.300;10.180;2023-08-30T15:40:55;21.10;99.90
14057;DHT22;7103;54.300;10.180;2023-08-30T15:43:23;21.00;99.90
14057;DHT22;7103;54.300;10.180;2023-08-30T15:45:50;21.00;99.90